Townshend, Vermont
Current Conditions -  °F | °C
As of 12:54 PM on Wednesday 28 Jan 2015 (Local Time) from KVSF Reporting Station
Scattered Clouds Scattered Clouds  
Wind Chill: 13°   Ceiling: Unl
Heat Index: 20°   Visibility: 10mi
Dew Point:   Wind: 5mph
Humidity: 50%   Direction: NA
Pressure: 30.02"   Gusts: NA
Location:  43.05°N, 72.67°W
Report Text: KVSF 281754Z AUTO VRB04KT 10SM SCT100 M07/M16 A3002 RMK AO2 SLP175 60004 T10671156 11067 21117 50003 TSNO
Loading
Personal Weather Stations






























Interactive Weather Map New forecast layout! Learn more

10-Day Weather Forecast

Advertisements
Track Severe Weather on mobile